This is the latest recevied weather packets stored in our database for station/object SV2LPQ-2. If no packets are shown the sender has not sent any weather packets the latest 1 day(s).
| Time | Temp. | Humidity | Pressure | Rain* | Wind** | Luminosity | Snow |
|---|---|---|---|---|---|---|---|
| 1836274470 | 12.22° C | 83% | 1074.3 hPa | 0 mm | 0 m/s | - | - |
| 1836274220 | 11.67° C | 83% | 1074.3 hPa | 0 mm | 0 m/s | - | - |
| 1836273970 | 11.67° C | 83% | 1074.3 hPa | 0 mm | 0 m/s | - | - |
| 1778051076 | 19.44° C | 54% | 1042.5 hPa | 0 mm | 0 m/s | - | - |
| 1778050576 | 18.89° C | 55% | 1042.5 hPa | 0 mm | 0 m/s | - | - |
| 1778050076 | 18.33° C | 56% | 1042.5 hPa | 0 mm | 0 m/s | - | - |
| 1778049576 | 18.33° C | 57% | 1042.5 hPa | 0 mm | 0 m/s | - | - |
| 1778049076 | 17.78° C | 58% | 1042.5 hPa | 0 mm | 0 m/s | - | - |
| 1778048576 | 17.78° C | 59% | 1042.5 hPa | 0 mm | 0 m/s | - | - |
| 1778048076 | 17.22° C | 62% | 1042.5 hPa | 0 mm | 0 m/s | - | - |
| 1778047576 | 16.67° C | 64% | 1042.5 hPa | 0 mm | 0 m/s | - | - |
| 1778047076 | 16.11° C | 64% | 1042.5 hPa | 0 mm | 0 m/s | - | - |
| 1778046576 | 15.56° C | 66% | 1042.5 hPa | 0 mm | 0 m/s | - | - |
| 1778046076 | 15.56° C | 67% | 1042.5 hPa | 0 mm | 0 m/s | - | - |
| 1778045576 | 15° C | 67% | 1042.5 hPa | 0 mm | 0 m/s | - | - |
| 1778045076 | 15° C | 69% | 1042.5 hPa | 0 mm | 0 m/s | - | - |
| 1778044576 | 15° C | 69% | 1042.5 hPa | 0 mm | 0.45 m/s, 112° | - | - |
| 1778044076 | 14.44° C | 72% | 1042.5 hPa | 0 mm | 0 m/s | - | - |
| 1778043576 | 13.33° C | 76% | 1042.5 hPa | 0 mm | 0 m/s | - | - |
| 1778043076 | 13.33° C | 77% | 1042.5 hPa | 0 mm | 0 m/s | - | - |
| 1778042576 | 12.78° C | 79% | 1042.5 hPa | 0 mm | 0 m/s | - | - |
| 1778042076 | 12.22° C | 80% | 1042.5 hPa | 0 mm | 0 m/s | - | - |
| 1778041576 | 11.11° C | 83% | 1042.5 hPa | 0 mm | 0 m/s | - | - |
| 1778041076 | 10.56° C | 84% | 1042.5 hPa | 0 mm | 0 m/s | - | - |
| 1778040576 | 10° C | 85% | 1042.5 hPa | 0 mm | 0 m/s | - | - |
* Rain latest hour (hover to see other rain measurements)
** Current wind speed in m/s (hover to see current wind gust speed)